sensor_id;sensor_type;location;lat;lon;timestamp;P1;durP1;ratioP1;P2;durP2;ratioP2
5245;SDS011;54412;51.206;6.888;2024-02-21T00:00:55;27.77;;;11.00;;
5245;SDS011;54412;51.206;6.888;2024-02-21T00:03:21;27.20;;;11.77;;
5245;SDS011;54412;51.206;6.888;2024-02-21T00:05:47;25.10;;;10.73;;
5245;SDS011;54412;51.206;6.888;2024-02-21T00:08:13;22.73;;;10.50;;
5245;SDS011;54412;51.206;6.888;2024-02-21T00:10:38;25.17;;;11.23;;
5245;SDS011;54412;51.206;6.888;2024-02-21T00:13:04;23.17;;;10.53;;
5245;SDS011;54412;51.206;6.888;2024-02-21T00:15:29;31.33;;;10.77;;
5245;SDS011;54412;51.206;6.888;2024-02-21T00:17:55;27.00;;;10.47;;
5245;SDS011;54412;51.206;6.888;2024-02-21T00:20:21;24.90;;;10.57;;
5245;SDS011;54412;51.206;6.888;2024-02-21T00:22:46;25.03;;;10.50;;
5245;SDS011;54412;51.206;6.888;2024-02-21T00:25:12;21.43;;;9.30;;
5245;SDS011;54412;51.206;6.888;2024-02-21T00:27:38;26.47;;;10.87;;
5245;SDS011;54412;51.206;6.888;2024-02-21T00:30:04;24.50;;;9.53;;
5245;SDS011;54412;51.206;6.888;2024-02-21T00:32:31;23.33;;;9.50;;
5245;SDS011;54412;51.206;6.888;2024-02-21T00:34:59;24.57;;;10.03;;
5245;SDS011;54412;51.206;6.888;2024-02-21T00:37:24;22.73;;;10.17;;
5245;SDS011;54412;51.206;6.888;2024-02-21T00:39:50;23.73;;;10.07;;
5245;SDS011;54412;51.206;6.888;2024-02-21T00:42:16;27.67;;;11.27;;
5245;SDS011;54412;51.206;6.888;2024-02-21T00:44:41;20.80;;;9.67;;
5245;SDS011;54412;51.206;6.888;2024-02-21T00:47:07;21.23;;;9.53;;
5245;SDS011;54412;51.206;6.888;2024-02-21T00:49:32;22.40;;;9.87;;
5245;SDS011;54412;51.206;6.888;2024-02-21T00:51:58;15.80;;;8.77;;
5245;SDS011;54412;51.206;6.888;2024-02-21T00:54:24;20.93;;;10.03;;
5245;SDS011;54412;51.206;6.888;2024-02-21T00:56:49;23.93;;;9.47;;
5245;SDS011;54412;51.206;6.888;2024-02-21T00:59:15;23.93;;;9.70;;
5245;SDS011;54412;51.206;6.888;2024-02-21T01:01:41;22.43;;;9.90;;
5245;SDS011;54412;51.206;6.888;2024-02-21T01:04:07;21.47;;;9.60;;
5245;SDS011;54412;51.206;6.888;2024-02-21T01:06:34;23.20;;;10.90;;
5245;SDS011;54412;51.206;6.888;2024-02-21T01:09:00;28.10;;;10.20;;
5245;SDS011;54412;51.206;6.888;2024-02-21T01:11:26;28.23;;;10.37;;
5245;SDS011;54412;51.206;6.888;2024-02-21T01:13:52;20.17;;;9.60;;
5245;SDS011;54412;51.206;6.888;2024-02-21T01:16:20;25.13;;;10.40;;
5245;SDS011;54412;51.206;6.888;2024-02-21T01:18:45;24.50;;;9.63;;
5245;SDS011;54412;51.206;6.888;2024-02-21T01:21:11;27.57;;;10.30;;
5245;SDS011;54412;51.206;6.888;2024-02-21T01:23:37;22.10;;;9.30;;
5245;SDS011;54412;51.206;6.888;2024-02-21T01:26:03;20.13;;;9.80;;
5245;SDS011;54412;51.206;6.888;2024-02-21T01:28:29;20.67;;;9.97;;
5245;SDS011;54412;51.206;6.888;2024-02-21T01:30:58;29.77;;;8.93;;
5245;SDS011;54412;51.206;6.888;2024-02-21T01:33:23;20.13;;;8.13;;
5245;SDS011;54412;51.206;6.888;2024-02-21T01:35:49;29.23;;;9.60;;
5245;SDS011;54412;51.206;6.888;2024-02-21T01:38:15;23.10;;;10.10;;
5245;SDS011;54412;51.206;6.888;2024-02-21T01:40:41;21.57;;;9.33;;
5245;SDS011;54412;51.206;6.888;2024-02-21T01:43:16;22.03;;;9.23;;
5245;SDS011;54412;51.206;6.888;2024-02-21T01:45:50;27.93;;;9.60;;
5245;SDS011;54412;51.206;6.888;2024-02-21T01:48:19;24.73;;;8.90;;
5245;SDS011;54412;51.206;6.888;2024-02-21T01:50:48;29.10;;;10.90;;
5245;SDS011;54412;51.206;6.888;2024-02-21T01:53:22;18.47;;;8.60;;
5245;SDS011;54412;51.206;6.888;2024-02-21T01:55:53;39.13;;;9.63;;
5245;SDS011;54412;51.206;6.888;2024-02-21T01:58:21;24.33;;;9.10;;
5245;SDS011;54412;51.206;6.888;2024-02-21T02:00:48;23.73;;;10.30;;
5245;SDS011;54412;51.206;6.888;2024-02-21T02:03:15;22.60;;;9.13;;
5245;SDS011;54412;51.206;6.888;2024-02-21T02:05:43;23.80;;;9.57;;
5245;SDS011;54412;51.206;6.888;2024-02-21T02:08:11;23.07;;;8.60;;
5245;SDS011;54412;51.206;6.888;2024-02-21T02:10:38;28.37;;;11.63;;
5245;SDS011;54412;51.206;6.888;2024-02-21T02:13:06;29.97;;;9.03;;
5245;SDS011;54412;51.206;6.888;2024-02-21T02:15:42;20.27;;;9.40;;
5245;SDS011;54412;51.206;6.888;2024-02-21T02:18:09;20.53;;;8.70;;
5245;SDS011;54412;51.206;6.888;2024-02-21T02:20:36;21.77;;;10.47;;
5245;SDS011;54412;51.206;6.888;2024-02-21T02:23:09;23.13;;;9.30;;
5245;SDS011;54412;51.206;6.888;2024-02-21T02:25:38;19.40;;;9.10;;
5245;SDS011;54412;51.206;6.888;2024-02-21T02:28:08;17.00;;;8.30;;
5245;SDS011;54412;51.206;6.888;2024-02-21T02:30:34;22.20;;;8.60;;
5245;SDS011;54412;51.206;6.888;2024-02-21T02:33:01;18.63;;;8.70;;
5245;SDS011;54412;51.206;6.888;2024-02-21T02:35:30;26.57;;;9.50;;
5245;SDS011;54412;51.206;6.888;2024-02-21T02:37:57;23.23;;;9.33;;
5245;SDS011;54412;51.206;6.888;2024-02-21T02:40:23;23.20;;;9.80;;
5245;SDS011;54412;51.206;6.888;2024-02-21T02:42:49;21.20;;;8.77;;
5245;SDS011;54412;51.206;6.888;2024-02-21T02:45:16;21.83;;;8.73;;
5245;SDS011;54412;51.206;6.888;2024-02-21T02:47:46;18.10;;;8.30;;
5245;SDS011;54412;51.206;6.888;2024-02-21T02:50:12;26.40;;;8.63;;
5245;SDS011;54412;51.206;6.888;2024-02-21T02:52:38;20.40;;;7.83;;
5245;SDS011;54412;51.206;6.888;2024-02-21T02:55:04;21.23;;;8.77;;
5245;SDS011;54412;51.206;6.888;2024-02-21T02:57:31;24.23;;;9.50;;
5245;SDS011;54412;51.206;6.888;2024-02-21T02:59:57;14.70;;;7.60;;
5245;SDS011;54412;51.206;6.888;2024-02-21T03:02:23;33.10;;;8.77;;
5245;SDS011;54412;51.206;6.888;2024-02-21T03:04:49;15.97;;;7.23;;
5245;SDS011;54412;51.206;6.888;2024-02-21T03:07:15;22.80;;;8.63;;
5245;SDS011;54412;51.206;6.888;2024-02-21T03:09:41;24.00;;;7.87;;
5245;SDS011;54412;51.206;6.888;2024-02-21T03:12:10;16.63;;;7.67;;
5245;SDS011;54412;51.206;6.888;2024-02-21T03:14:36;26.07;;;9.00;;
5245;SDS011;54412;51.206;6.888;2024-02-21T03:17:02;19.00;;;7.40;;
5245;SDS011;54412;51.206;6.888;2024-02-21T03:19:28;15.63;;;7.40;;
5245;SDS011;54412;51.206;6.888;2024-02-21T03:21:54;17.83;;;8.90;;
5245;SDS011;54412;51.206;6.888;2024-02-21T03:24:20;21.70;;;8.33;;
5245;SDS011;54412;51.206;6.888;2024-02-21T03:26:47;21.80;;;8.47;;
5245;SDS011;54412;51.206;6.888;2024-02-21T03:29:14;20.63;;;8.20;;
5245;SDS011;54412;51.206;6.888;2024-02-21T03:31:41;21.97;;;8.23;;
5245;SDS011;54412;51.206;6.888;2024-02-21T03:34:08;21.37;;;7.73;;
5245;SDS011;54412;51.206;6.888;2024-02-21T03:36:35;17.83;;;6.90;;
5245;SDS011;54412;51.206;6.888;2024-02-21T03:39:01;21.07;;;7.90;;
5245;SDS011;54412;51.206;6.888;2024-02-21T03:41:27;28.57;;;7.93;;
5245;SDS011;54412;51.206;6.888;2024-02-21T03:43:53;20.13;;;8.30;;
5245;SDS011;54412;51.206;6.888;2024-02-21T03:46:19;24.77;;;8.30;;
5245;SDS011;54412;51.206;6.888;2024-02-21T03:48:45;15.80;;;8.03;;
5245;SDS011;54412;51.206;6.888;2024-02-21T03:51:11;16.57;;;8.17;;
5245;SDS011;54412;51.206;6.888;2024-02-21T03:53:36;17.43;;;7.20;;
5245;SDS011;54412;51.206;6.888;2024-02-21T03:56:02;23.00;;;8.20;;
5245;SDS011;54412;51.206;6.888;2024-02-21T03:58:29;20.63;;;7.87;;
5245;SDS011;54412;51.206;6.888;2024-02-21T04:00:55;19.30;;;8.77;;
5245;SDS011;54412;51.206;6.888;2024-02-21T04:03:21;17.10;;;7.00;;
5245;SDS011;54412;51.206;6.888;2024-02-21T04:05:47;20.07;;;8.23;;
5245;SDS011;54412;51.206;6.888;2024-02-21T04:08:13;25.40;;;8.33;;
5245;SDS011;54412;51.206;6.888;2024-02-21T04:10:39;16.70;;;6.90;;
5245;SDS011;54412;51.206;6.888;2024-02-21T04:13:05;18.83;;;7.90;;
5245;SDS011;54412;51.206;6.888;2024-02-21T04:15:32;18.53;;;7.50;;
5245;SDS011;54412;51.206;6.888;2024-02-21T04:17:58;18.00;;;6.90;;
5245;SDS011;54412;51.206;6.888;2024-02-21T04:20:23;19.90;;;8.23;;
5245;SDS011;54412;51.206;6.888;2024-02-21T04:22:49;15.87;;;7.20;;
5245;SDS011;54412;51.206;6.888;2024-02-21T04:25:15;17.83;;;6.80;;
5245;SDS011;54412;51.206;6.888;2024-02-21T04:27:41;29.13;;;7.77;;
5245;SDS011;54412;51.206;6.888;2024-02-21T04:30:07;20.57;;;7.07;;
5245;SDS011;54412;51.206;6.888;2024-02-21T04:32:34;22.10;;;8.63;;
5245;SDS011;54412;51.206;6.888;2024-02-21T04:35:00;20.97;;;7.23;;
5245;SDS011;54412;51.206;6.888;2024-02-21T04:37:26;20.37;;;6.97;;
5245;SDS011;54412;51.206;6.888;2024-02-21T04:39:52;23.87;;;7.73;;
5245;SDS011;54412;51.206;6.888;2024-02-21T04:42:18;22.50;;;6.93;;
5245;SDS011;54412;51.206;6.888;2024-02-21T04:44:44;19.17;;;6.80;;
5245;SDS011;54412;51.206;6.888;2024-02-21T04:47:10;18.40;;;7.20;;
5245;SDS011;54412;51.206;6.888;2024-02-21T04:49:35;13.67;;;6.37;;
5245;SDS011;54412;51.206;6.888;2024-02-21T04:52:01;15.77;;;6.23;;
5245;SDS011;54412;51.206;6.888;2024-02-21T04:54:27;13.20;;;6.63;;
5245;SDS011;54412;51.206;6.888;2024-02-21T04:56:53;18.20;;;6.63;;
5245;SDS011;54412;51.206;6.888;2024-02-21T04:59:18;15.80;;;7.40;;
5245;SDS011;54412;51.206;6.888;2024-02-21T05:01:44;12.10;;;6.77;;
5245;SDS011;54412;51.206;6.888;2024-02-21T05:04:10;18.00;;;7.13;;
5245;SDS011;54412;51.206;6.888;2024-02-21T05:06:39;20.07;;;7.07;;
5245;SDS011;54412;51.206;6.888;2024-02-21T05:09:06;17.50;;;6.73;;
5245;SDS011;54412;51.206;6.888;2024-02-21T05:11:35;15.13;;;5.90;;
5245;SDS011;54412;51.206;6.888;2024-02-21T05:14:05;20.80;;;7.50;;
5245;SDS011;54412;51.206;6.888;2024-02-21T05:16:31;17.90;;;7.00;;
5245;SDS011;54412;51.206;6.888;2024-02-21T05:18:57;23.47;;;7.90;;
5245;SDS011;54412;51.206;6.888;2024-02-21T05:21:23;22.80;;;7.47;;
5245;SDS011;54412;51.206;6.888;2024-02-21T05:23:49;17.17;;;7.20;;
5245;SDS011;54412;51.206;6.888;2024-02-21T05:26:25;12.47;;;6.57;;
5245;SDS011;54412;51.206;6.888;2024-02-21T05:28:52;15.33;;;7.07;;
5245;SDS011;54412;51.206;6.888;2024-02-21T05:31:18;10.87;;;5.83;;
5245;SDS011;54412;51.206;6.888;2024-02-21T05:33:45;12.67;;;6.20;;
5245;SDS011;54412;51.206;6.888;2024-02-21T05:36:11;20.17;;;6.30;;
5245;SDS011;54412;51.206;6.888;2024-02-21T05:38:38;11.47;;;5.77;;
5245;SDS011;54412;51.206;6.888;2024-02-21T05:41:04;17.10;;;6.63;;
5245;SDS011;54412;51.206;6.888;2024-02-21T05:43:31;10.90;;;5.37;;
5245;SDS011;54412;51.206;6.888;2024-02-21T05:45:56;42.07;;;7.40;;
5245;SDS011;54412;51.206;6.888;2024-02-21T05:48:22;12.73;;;5.20;;
5245;SDS011;54412;51.206;6.888;2024-02-21T05:50:49;16.27;;;5.37;;
5245;SDS011;54412;51.206;6.888;2024-02-21T05:53:15;18.30;;;6.23;;
5245;SDS011;54412;51.206;6.888;2024-02-21T05:55:40;11.40;;;5.73;;
5245;SDS011;54412;51.206;6.888;2024-02-21T05:58:06;18.07;;;6.70;;
5245;SDS011;54412;51.206;6.888;2024-02-21T06:00:35;14.77;;;4.93;;
5245;SDS011;54412;51.206;6.888;2024-02-21T06:03:02;14.80;;;6.10;;
5245;SDS011;54412;51.206;6.888;2024-02-21T06:05:28;12.67;;;4.83;;
5245;SDS011;54412;51.206;6.888;2024-02-21T06:07:53;16.30;;;6.73;;
5245;SDS011;54412;51.206;6.888;2024-02-21T06:10:19;13.90;;;5.90;;
5245;SDS011;54412;51.206;6.888;2024-02-21T06:12:45;14.53;;;5.67;;
5245;SDS011;54412;51.206;6.888;2024-02-21T06:15:10;13.90;;;6.00;;
5245;SDS011;54412;51.206;6.888;2024-02-21T06:17:36;12.80;;;6.00;;
5245;SDS011;54412;51.206;6.888;2024-02-21T06:20:02;9.53;;;4.90;;
5245;SDS011;54412;51.206;6.888;2024-02-21T06:22:28;13.37;;;5.80;;
5245;SDS011;54412;51.206;6.888;2024-02-21T06:24:55;13.13;;;5.10;;
5245;SDS011;54412;51.206;6.888;2024-02-21T06:27:21;11.30;;;5.90;;
5245;SDS011;54412;51.206;6.888;2024-02-21T06:29:46;15.83;;;5.50;;
5245;SDS011;54412;51.206;6.888;2024-02-21T06:32:12;16.93;;;5.70;;
5245;SDS011;54412;51.206;6.888;2024-02-21T06:34:38;14.80;;;6.27;;
5245;SDS011;54412;51.206;6.888;2024-02-21T06:37:03;16.87;;;5.27;;
5245;SDS011;54412;51.206;6.888;2024-02-21T06:39:29;16.67;;;5.70;;
5245;SDS011;54412;51.206;6.888;2024-02-21T06:41:55;15.90;;;6.07;;
5245;SDS011;54412;51.206;6.888;2024-02-21T06:44:23;13.90;;;5.47;;
5245;SDS011;54412;51.206;6.888;2024-02-21T06:46:49;11.23;;;5.00;;
5245;SDS011;54412;51.206;6.888;2024-02-21T06:49:15;8.90;;;4.97;;
5245;SDS011;54412;51.206;6.888;2024-02-21T06:51:43;17.00;;;5.83;;
5245;SDS011;54412;51.206;6.888;2024-02-21T06:54:10;14.70;;;5.17;;
5245;SDS011;54412;51.206;6.888;2024-02-21T06:56:36;13.30;;;6.00;;
5245;SDS011;54412;51.206;6.888;2024-02-21T06:59:02;8.90;;;5.00;;
5245;SDS011;54412;51.206;6.888;2024-02-21T07:01:29;14.00;;;5.37;;
5245;SDS011;54412;51.206;6.888;2024-02-21T07:03:55;15.90;;;5.03;;
5245;SDS011;54412;51.206;6.888;2024-02-21T07:06:21;12.90;;;5.40;;
5245;SDS011;54412;51.206;6.888;2024-02-21T07:08:47;15.47;;;6.47;;
5245;SDS011;54412;51.206;6.888;2024-02-21T07:11:13;10.40;;;5.40;;
5245;SDS011;54412;51.206;6.888;2024-02-21T07:13:39;11.83;;;5.60;;
5245;SDS011;54412;51.206;6.888;2024-02-21T07:16:05;9.47;;;4.70;;
5245;SDS011;54412;51.206;6.888;2024-02-21T07:18:32;9.90;;;4.93;;
5245;SDS011;54412;51.206;6.888;2024-02-21T07:20:58;19.80;;;6.13;;
5245;SDS011;54412;51.206;6.888;2024-02-21T07:23:23;11.73;;;4.73;;
5245;SDS011;54412;51.206;6.888;2024-02-21T07:25:49;8.80;;;4.93;;
5245;SDS011;54412;51.206;6.888;2024-02-21T07:28:15;10.73;;;4.53;;
5245;SDS011;54412;51.206;6.888;2024-02-21T07:30:42;13.13;;;4.07;;
5245;SDS011;54412;51.206;6.888;2024-02-21T07:33:08;8.60;;;4.90;;
5245;SDS011;54412;51.206;6.888;2024-02-21T07:35:36;9.90;;;4.17;;
5245;SDS011;54412;51.206;6.888;2024-02-21T07:38:03;6.87;;;3.50;;
5245;SDS011;54412;51.206;6.888;2024-02-21T07:40:30;14.43;;;4.77;;
5245;SDS011;54412;51.206;6.888;2024-02-21T07:46:37;13.93;;;4.63;;
5245;SDS011;54412;51.206;6.888;2024-02-21T07:49:02;7.20;;;4.30;;
5245;SDS011;54412;51.206;6.888;2024-02-21T07:51:28;12.73;;;4.40;;
5245;SDS011;54412;51.206;6.888;2024-02-21T07:53:54;7.37;;;4.27;;
5245;SDS011;54412;51.206;6.888;2024-02-21T07:56:20;11.93;;;4.67;;
5245;SDS011;54412;51.206;6.888;2024-02-21T07:58:46;9.50;;;3.97;;
5245;SDS011;54412;51.206;6.888;2024-02-21T08:01:17;10.80;;;5.10;;
5245;SDS011;54412;51.206;6.888;2024-02-21T08:03:45;14.77;;;5.20;;
5245;SDS011;54412;51.206;6.888;2024-02-21T08:06:12;10.90;;;4.80;;
5245;SDS011;54412;51.206;6.888;2024-02-21T08:08:38;18.73;;;6.27;;
5245;SDS011;54412;51.206;6.888;2024-02-21T08:11:05;23.37;;;5.20;;
5245;SDS011;54412;51.206;6.888;2024-02-21T08:13:30;13.93;;;4.00;;
5245;SDS011;54412;51.206;6.888;2024-02-21T08:15:56;17.33;;;5.20;;
5245;SDS011;54412;51.206;6.888;2024-02-21T08:18:22;8.57;;;4.20;;
5245;SDS011;54412;51.206;6.888;2024-02-21T08:20:48;18.00;;;4.97;;
5245;SDS011;54412;51.206;6.888;2024-02-21T08:23:17;11.77;;;4.40;;
5245;SDS011;54412;51.206;6.888;2024-02-21T08:25:44;15.50;;;4.70;;
5245;SDS011;54412;51.206;6.888;2024-02-21T08:28:10;15.13;;;4.80;;
5245;SDS011;54412;51.206;6.888;2024-02-21T08:30:37;21.80;;;6.33;;
5245;SDS011;54412;51.206;6.888;2024-02-21T08:33:03;8.63;;;4.50;;
5245;SDS011;54412;51.206;6.888;2024-02-21T08:35:29;15.67;;;5.20;;
5245;SDS011;54412;51.206;6.888;2024-02-21T08:37:55;14.60;;;5.40;;
5245;SDS011;54412;51.206;6.888;2024-02-21T08:40:20;16.13;;;4.60;;
5245;SDS011;54412;51.206;6.888;2024-02-21T08:42:46;12.27;;;4.50;;
5245;SDS011;54412;51.206;6.888;2024-02-21T08:45:12;11.80;;;4.47;;
5245;SDS011;54412;51.206;6.888;2024-02-21T08:47:41;12.37;;;4.53;;
5245;SDS011;54412;51.206;6.888;2024-02-21T08:50:08;17.23;;;5.23;;
5245;SDS011;54412;51.206;6.888;2024-02-21T08:52:37;21.80;;;5.30;;
5245;SDS011;54412;51.206;6.888;2024-02-21T08:55:02;16.43;;;4.87;;
5245;SDS011;54412;51.206;6.888;2024-02-21T08:57:29;15.20;;;4.37;;
5245;SDS011;54412;51.206;6.888;2024-02-21T09:00:01;17.30;;;5.20;;
5245;SDS011;54412;51.206;6.888;2024-02-21T09:02:35;12.53;;;4.93;;
5245;SDS011;54412;51.206;6.888;2024-02-21T09:05:05;11.73;;;4.47;;
5245;SDS011;54412;51.206;6.888;2024-02-21T09:07:31;17.60;;;5.23;;
5245;SDS011;54412;51.206;6.888;2024-02-21T09:09:56;19.90;;;5.30;;
5245;SDS011;54412;51.206;6.888;2024-02-21T09:12:22;17.63;;;4.83;;
5245;SDS011;54412;51.206;6.888;2024-02-21T09:14:48;16.40;;;4.67;;
5245;SDS011;54412;51.206;6.888;2024-02-21T09:17:15;22.57;;;5.80;;
5245;SDS011;54412;51.206;6.888;2024-02-21T09:19:45;14.63;;;5.50;;
5245;SDS011;54412;51.206;6.888;2024-02-21T09:22:13;11.80;;;5.70;;
5245;SDS011;54412;51.206;6.888;2024-02-21T09:24:39;10.93;;;5.43;;
5245;SDS011;54412;51.206;6.888;2024-02-21T09:27:05;14.50;;;5.70;;
5245;SDS011;54412;51.206;6.888;2024-02-21T09:29:31;15.77;;;4.90;;
5245;SDS011;54412;51.206;6.888;2024-02-21T09:31:58;21.33;;;5.57;;
5245;SDS011;54412;51.206;6.888;2024-02-21T09:34:24;12.40;;;4.80;;
5245;SDS011;54412;51.206;6.888;2024-02-21T09:36:50;13.13;;;5.17;;
5245;SDS011;54412;51.206;6.888;2024-02-21T09:39:15;15.37;;;5.07;;
5245;SDS011;54412;51.206;6.888;2024-02-21T09:41:45;16.70;;;5.43;;
5245;SDS011;54412;51.206;6.888;2024-02-21T09:44:18;16.83;;;5.57;;
5245;SDS011;54412;51.206;6.888;2024-02-21T09:47:00;10.97;;;5.57;;
5245;SDS011;54412;51.206;6.888;2024-02-21T09:49:33;11.67;;;5.03;;
5245;SDS011;54412;51.206;6.888;2024-02-21T09:52:03;13.13;;;4.93;;
5245;SDS011;54412;51.206;6.888;2024-02-21T09:54:32;12.33;;;5.00;;
5245;SDS011;54412;51.206;6.888;2024-02-21T09:57:02;10.50;;;4.60;;
5245;SDS011;54412;51.206;6.888;2024-02-21T09:59:30;14.77;;;4.87;;
5245;SDS011;54412;51.206;6.888;2024-02-21T10:01:58;16.40;;;5.70;;
5245;SDS011;54412;51.206;6.888;2024-02-21T10:04:27;11.23;;;4.90;;
5245;SDS011;54412;51.206;6.888;2024-02-21T10:06:54;9.70;;;5.37;;
5245;SDS011;54412;51.206;6.888;2024-02-21T10:09:21;10.30;;;4.40;;
5245;SDS011;54412;51.206;6.888;2024-02-21T10:11:48;17.97;;;4.70;;
5245;SDS011;54412;51.206;6.888;2024-02-21T10:14:16;7.43;;;4.17;;
5245;SDS011;54412;51.206;6.888;2024-02-21T10:16:43;10.10;;;4.47;;
5245;SDS011;54412;51.206;6.888;2024-02-21T10:19:19;7.10;;;4.33;;
5245;SDS011;54412;51.206;6.888;2024-02-21T10:22:05;11.63;;;3.90;;
5245;SDS011;54412;51.206;6.888;2024-02-21T10:24:32;9.80;;;4.20;;
5245;SDS011;54412;51.206;6.888;2024-02-21T10:27:03;9.83;;;4.17;;
5245;SDS011;54412;51.206;6.888;2024-02-21T10:29:33;11.33;;;3.73;;
5245;SDS011;54412;51.206;6.888;2024-02-21T10:32:18;13.57;;;4.10;;
5245;SDS011;54412;51.206;6.888;2024-02-21T10:34:43;9.83;;;3.57;;
5245;SDS011;54412;51.206;6.888;2024-02-21T10:37:10;9.43;;;3.87;;
5245;SDS011;54412;51.206;6.888;2024-02-21T10:39:40;9.87;;;3.40;;
5245;SDS011;54412;51.206;6.888;2024-02-21T10:42:07;7.63;;;3.83;;
5245;SDS011;54412;51.206;6.888;2024-02-21T10:44:37;10.03;;;4.57;;
5245;SDS011;54412;51.206;6.888;2024-02-21T10:47:07;7.30;;;4.17;;
5245;SDS011;54412;51.206;6.888;2024-02-21T10:49:39;12.53;;;3.83;;
5245;SDS011;54412;51.206;6.888;2024-02-21T10:52:13;7.50;;;3.40;;
5245;SDS011;54412;51.206;6.888;2024-02-21T10:54:45;11.93;;;4.20;;
5245;SDS011;54412;51.206;6.888;2024-02-21T10:57:22;6.07;;;3.80;;
5245;SDS011;54412;51.206;6.888;2024-02-21T10:59:48;7.77;;;3.70;;
5245;SDS011;54412;51.206;6.888;2024-02-21T11:02:16;9.13;;;3.60;;
5245;SDS011;54412;51.206;6.888;2024-02-21T11:04:42;9.57;;;3.50;;
5245;SDS011;54412;51.206;6.888;2024-02-21T11:07:09;9.20;;;3.77;;
5245;SDS011;54412;51.206;6.888;2024-02-21T11:09:35;14.33;;;4.00;;
5245;SDS011;54412;51.206;6.888;2024-02-21T11:12:04;6.40;;;3.93;;
5245;SDS011;54412;51.206;6.888;2024-02-21T11:14:31;8.10;;;3.80;;
5245;SDS011;54412;51.206;6.888;2024-02-21T11:17:13;11.80;;;3.90;;
5245;SDS011;54412;51.206;6.888;2024-02-21T11:19:44;8.93;;;3.80;;
5245;SDS011;54412;51.206;6.888;2024-02-21T11:22:19;11.10;;;4.93;;
5245;SDS011;54412;51.206;6.888;2024-02-21T11:24:47;14.20;;;4.10;;
5245;SDS011;54412;51.206;6.888;2024-02-21T11:27:19;12.03;;;3.40;;
5245;SDS011;54412;51.206;6.888;2024-02-21T11:29:53;14.40;;;4.27;;
5245;SDS011;54412;51.206;6.888;2024-02-21T11:32:22;11.57;;;4.23;;
5245;SDS011;54412;51.206;6.888;2024-02-21T11:34:54;10.80;;;4.10;;
5245;SDS011;54412;51.206;6.888;2024-02-21T11:37:29;8.20;;;4.03;;
5245;SDS011;54412;51.206;6.888;2024-02-21T11:40:01;11.77;;;3.50;;
5245;SDS011;54412;51.206;6.888;2024-02-21T11:42:29;8.57;;;4.00;;
5245;SDS011;54412;51.206;6.888;2024-02-21T11:44:56;10.47;;;3.50;;
5245;SDS011;54412;51.206;6.888;2024-02-21T11:47:22;11.70;;;4.23;;
5245;SDS011;54412;51.206;6.888;2024-02-21T11:49:49;7.20;;;3.20;;
5245;SDS011;54412;51.206;6.888;2024-02-21T11:52:18;11.67;;;3.77;;
5245;SDS011;54412;51.206;6.888;2024-02-21T11:54:52;10.83;;;4.47;;
5245;SDS011;54412;51.206;6.888;2024-02-21T11:57:19;8.50;;;3.00;;
5245;SDS011;54412;51.206;6.888;2024-02-21T11:59:45;12.93;;;3.80;;
5245;SDS011;54412;51.206;6.888;2024-02-21T12:02:12;11.50;;;3.93;;
5245;SDS011;54412;51.206;6.888;2024-02-21T12:04:38;5.70;;;3.03;;
5245;SDS011;54412;51.206;6.888;2024-02-21T12:07:05;5.30;;;3.30;;
5245;SDS011;54412;51.206;6.888;2024-02-21T12:09:33;7.97;;;3.50;;
5245;SDS011;54412;51.206;6.888;2024-02-21T12:12:03;10.20;;;3.70;;
5245;SDS011;54412;51.206;6.888;2024-02-21T12:14:32;12.57;;;4.27;;
5245;SDS011;54412;51.206;6.888;2024-02-21T12:16:59;15.50;;;3.30;;
5245;SDS011;54412;51.206;6.888;2024-02-21T12:19:28;7.93;;;3.10;;
5245;SDS011;54412;51.206;6.888;2024-02-21T12:21:56;8.90;;;3.33;;
5245;SDS011;54412;51.206;6.888;2024-02-21T12:24:24;11.63;;;3.50;;
5245;SDS011;54412;51.206;6.888;2024-02-21T12:26:52;9.43;;;2.97;;
5245;SDS011;54412;51.206;6.888;2024-02-21T12:29:21;7.60;;;2.60;;
5245;SDS011;54412;51.206;6.888;2024-02-21T12:31:49;12.23;;;3.83;;
5245;SDS011;54412;51.206;6.888;2024-02-21T12:34:16;8.73;;;3.33;;
5245;SDS011;54412;51.206;6.888;2024-02-21T12:36:42;9.63;;;3.20;;
5245;SDS011;54412;51.206;6.888;2024-02-21T12:39:10;8.43;;;3.00;;
5245;SDS011;54412;51.206;6.888;2024-02-21T12:41:36;9.20;;;3.30;;
5245;SDS011;54412;51.206;6.888;2024-02-21T12:44:09;7.10;;;2.60;;
5245;SDS011;54412;51.206;6.888;2024-02-21T12:46:36;7.57;;;2.67;;
5245;SDS011;54412;51.206;6.888;2024-02-21T12:49:04;6.10;;;2.87;;
5245;SDS011;54412;51.206;6.888;2024-02-21T12:51:33;11.90;;;3.10;;
5245;SDS011;54412;51.206;6.888;2024-02-21T12:54:00;10.80;;;3.63;;
5245;SDS011;54412;51.206;6.888;2024-02-21T12:56:27;9.43;;;3.10;;
5245;SDS011;54412;51.206;6.888;2024-02-21T12:58:54;12.80;;;3.60;;
5245;SDS011;54412;51.206;6.888;2024-02-21T13:01:21;14.90;;;3.00;;
5245;SDS011;54412;51.206;6.888;2024-02-21T13:03:47;9.37;;;3.07;;
5245;SDS011;54412;51.206;6.888;2024-02-21T13:06:12;10.43;;;3.03;;
5245;SDS011;54412;51.206;6.888;2024-02-21T13:08:38;7.47;;;2.80;;
5245;SDS011;54412;51.206;6.888;2024-02-21T13:11:04;3.77;;;2.93;;
5245;SDS011;54412;51.206;6.888;2024-02-21T13:13:30;6.20;;;3.07;;
5245;SDS011;54412;51.206;6.888;2024-02-21T13:15:57;10.07;;;2.67;;
5245;SDS011;54412;51.206;6.888;2024-02-21T13:18:23;10.13;;;2.70;;
5245;SDS011;54412;51.206;6.888;2024-02-21T13:20:49;11.03;;;2.63;;
5245;SDS011;54412;51.206;6.888;2024-02-21T13:23:15;6.80;;;2.63;;
5245;SDS011;54412;51.206;6.888;2024-02-21T13:25:40;8.53;;;2.17;;
5245;SDS011;54412;51.206;6.888;2024-02-21T13:28:06;8.90;;;2.70;;
5245;SDS011;54412;51.206;6.888;2024-02-21T13:30:32;7.73;;;2.67;;
5245;SDS011;54412;51.206;6.888;2024-02-21T13:32:58;6.80;;;3.23;;
5245;SDS011;54412;51.206;6.888;2024-02-21T13:35:23;5.57;;;2.97;;
5245;SDS011;54412;51.206;6.888;2024-02-21T13:37:49;8.97;;;3.00;;
5245;SDS011;54412;51.206;6.888;2024-02-21T13:40:15;4.70;;;2.50;;
5245;SDS011;54412;51.206;6.888;2024-02-21T13:42:41;6.07;;;2.47;;
5245;SDS011;54412;51.206;6.888;2024-02-21T13:45:08;5.90;;;2.43;;
5245;SDS011;54412;51.206;6.888;2024-02-21T13:47:34;6.57;;;3.00;;
5245;SDS011;54412;51.206;6.888;2024-02-21T13:50:06;7.00;;;3.13;;
5245;SDS011;54412;51.206;6.888;2024-02-21T13:52:39;12.03;;;3.40;;
5245;SDS011;54412;51.206;6.888;2024-02-21T13:55:08;9.33;;;2.93;;
5245;SDS011;54412;51.206;6.888;2024-02-21T13:57:34;7.80;;;3.40;;
5245;SDS011;54412;51.206;6.888;2024-02-21T14:00:01;8.20;;;3.00;;
5245;SDS011;54412;51.206;6.888;2024-02-21T14:02:28;5.83;;;2.70;;
5245;SDS011;54412;51.206;6.888;2024-02-21T14:04:54;8.20;;;3.60;;
5245;SDS011;54412;51.206;6.888;2024-02-21T14:07:20;8.43;;;2.83;;
5245;SDS011;54412;51.206;6.888;2024-02-21T14:09:45;7.60;;;3.30;;
5245;SDS011;54412;51.206;6.888;2024-02-21T14:12:11;11.77;;;3.43;;
5245;SDS011;54412;51.206;6.888;2024-02-21T14:14:37;9.27;;;3.27;;
5245;SDS011;54412;51.206;6.888;2024-02-21T14:17:03;5.60;;;2.50;;
5245;SDS011;54412;51.206;6.888;2024-02-21T14:19:29;11.37;;;3.20;;
5245;SDS011;54412;51.206;6.888;2024-02-21T14:21:55;7.73;;;2.40;;
5245;SDS011;54412;51.206;6.888;2024-02-21T14:24:22;4.90;;;2.50;;
5245;SDS011;54412;51.206;6.888;2024-02-21T14:26:48;9.80;;;2.63;;
5245;SDS011;54412;51.206;6.888;2024-02-21T14:29:14;8.80;;;2.70;;
5245;SDS011;54412;51.206;6.888;2024-02-21T14:31:40;12.00;;;3.03;;
5245;SDS011;54412;51.206;6.888;2024-02-21T14:34:05;15.43;;;3.33;;
5245;SDS011;54412;51.206;6.888;2024-02-21T14:36:32;8.70;;;2.73;;
5245;SDS011;54412;51.206;6.888;2024-02-21T14:38:58;8.23;;;2.53;;
5245;SDS011;54412;51.206;6.888;2024-02-21T14:41:24;11.10;;;2.60;;
5245;SDS011;54412;51.206;6.888;2024-02-21T14:43:50;4.73;;;3.00;;
5245;SDS011;54412;51.206;6.888;2024-02-21T14:46:17;3.93;;;2.70;;
5245;SDS011;54412;51.206;6.888;2024-02-21T14:48:42;4.93;;;2.50;;
5245;SDS011;54412;51.206;6.888;2024-02-21T14:51:10;7.13;;;2.77;;
5245;SDS011;54412;51.206;6.888;2024-02-21T14:53:36;9.07;;;2.93;;